Time;durP1;ratioP1;P1;durP2;ratioP2;P2;SDS_P1;SDS_P2;PMS_P1;PMS_P2;Temp;Humidity;BMP_temperature;BMP_pressure;BME280_temperature;BME280_humidity;BME280_pressure;Samples;Min_cycle;Max_cycle;Signal;HPM_P1;HPM_P2
2021/10/27 00:01:49;;;;;;;44.03;26.17;;;;;;;6.00;68.33;99312.16;5090450;28;20020;-73
2021/10/27 00:04:14;;;;;;;41.47;24.83;;;;;;;5.99;69.22;99310.47;5073433;28;20557;-74
2021/10/27 00:06:41;;;;;;;46.80;27.33;;;;;;;5.99;68.41;99315.09;5076909;28;20017;-73
2021/10/27 00:09:06;;;;;;;48.85;27.60;;;;;;;5.96;68.47;99314.50;5061482;28;20452;-73
2021/10/27 00:11:32;;;;;;;47.38;27.50;;;;;;;5.96;68.08;99310.97;5080985;28;20067;-71
2021/10/27 00:13:57;;;;;;;48.97;26.83;;;;;;;5.95;68.44;99318.28;5083360;28;20049;-72
2021/10/27 00:16:23;;;;;;;42.92;24.02;;;;;;;5.95;69.12;99317.50;5079991;28;20119;-72
2021/10/27 00:18:48;;;;;;;44.40;25.02;;;;;;;5.93;68.51;99314.19;5080074;28;20032;-71
2021/10/27 00:21:14;;;;;;;45.60;25.60;;;;;;;5.91;68.27;99319.84;5078484;28;20039;-72
2021/10/27 00:23:39;;;;;;;45.63;25.23;;;;;;;5.90;68.01;99320.13;5085637;28;20020;-72
2021/10/27 00:26:05;;;;;;;47.85;26.00;;;;;;;5.89;68.33;99329.34;5089985;28;20456;-72
2021/10/27 00:28:30;;;;;;;40.22;24.45;;;;;;;5.88;68.64;99338.59;5088675;28;20834;-72
2021/10/27 00:30:56;;;;;;;41.72;24.10;;;;;;;5.85;68.56;99339.06;5092571;28;20031;-73
2021/10/27 00:33:22;;;;;;;43.70;26.00;;;;;;;5.81;68.31;99345.00;5071832;28;20024;-72
2021/10/27 00:35:47;;;;;;;44.35;25.08;;;;;;;5.79;68.34;99338.16;5087007;28;20035;-72
2021/10/27 00:38:13;;;;;;;41.80;24.70;;;;;;;5.78;68.79;99344.66;5088215;28;20035;-73
2021/10/27 00:40:38;;;;;;;42.67;25.58;;;;;;;5.78;69.00;99347.41;5080496;28;20016;-73
2021/10/27 00:43:04;;;;;;;42.88;25.75;;;;;;;5.80;68.33;99339.81;5083339;28;20115;-72
2021/10/27 00:45:29;;;;;;;41.80;24.23;;;;;;;5.84;68.90;99340.97;5083355;28;20040;-71
2021/10/27 00:47:55;;;;;;;47.65;27.17;;;;;;;5.87;69.09;99334.22;5067829;28;20119;-72
2021/10/27 00:50:20;;;;;;;43.85;25.00;;;;;;;5.92;68.78;99340.56;5085658;28;20111;-72
2021/10/27 00:52:45;;;;;;;46.40;27.75;;;;;;;5.91;69.35;99333.47;5083768;28;20021;-73
2021/10/27 00:55:11;;;;;;;45.28;26.42;;;;;;;5.92;68.83;99326.16;5081557;28;20067;-72
2021/10/27 00:57:38;;;;;;;45.78;26.23;;;;;;;5.96;68.95;99333.56;5083012;28;20139;-73
2021/10/27 01:00:06;;;;;;;45.92;25.90;;;;;;;6.02;69.57;99337.25;5084482;28;20016;-72
2021/10/27 01:02:31;;;;;;;46.90;28.58;;;;;;;6.08;69.48;99338.16;5086983;28;20024;-72
2021/10/27 01:04:57;;;;;;;44.67;28.58;;;;;;;6.15;69.64;99335.28;5089514;28;20143;-72
2021/10/27 01:07:23;;;;;;;48.45;26.85;;;;;;;6.19;69.17;99333.72;5088663;28;20111;-72
2021/10/27 01:09:49;;;;;;;44.67;25.90;;;;;;;6.25;69.41;99332.75;5071573;28;20127;-71
2021/10/27 01:12:14;;;;;;;48.20;26.58;;;;;;;6.27;69.27;99330.59;5084752;28;20459;-72
2021/10/27 01:14:42;;;;;;;44.63;26.67;;;;;;;6.29;69.06;99328.47;5088315;28;20092;-72
2021/10/27 01:17:09;;;;;;;40.08;24.60;;;;;;;6.30;69.77;99332.03;5082382;28;20020;-73
2021/10/27 01:19:55;;;;;;;43.40;26.55;;;;;;;6.28;69.03;99332.25;5085495;28;20028;-73
2021/10/27 01:22:23;;;;;;;43.40;25.27;;;;;;;6.24;69.08;99334.66;5087364;28;20287;-72
2021/10/27 01:24:49;;;;;;;35.67;22.50;;;;;;;6.22;68.86;99335.97;5083570;28;20012;-72
2021/10/27 01:27:15;;;;;;;43.42;26.02;;;;;;;6.19;69.17;99331.00;5084332;28;20534;-73
2021/10/27 01:29:41;;;;;;;36.75;22.70;;;;;;;6.15;68.99;99322.50;5068304;28;20385;-73
2021/10/27 01:32:09;;;;;;;43.22;24.65;;;;;;;6.11;68.98;99318.63;5087772;28;20111;-73
2021/10/27 01:34:35;;;;;;;41.03;25.25;;;;;;;6.08;69.25;99332.72;5087090;28;20035;-73
2021/10/27 01:37:01;;;;;;;38.85;24.25;;;;;;;6.02;69.25;99325.53;5084851;28;20480;-73
2021/10/27 01:39:27;;;;;;;46.72;26.10;;;;;;;5.97;69.40;99324.31;5086245;28;20016;-73
2021/10/27 01:41:52;;;;;;;44.95;24.33;;;;;;;5.93;69.35;99328.59;5079628;28;20544;-73
2021/10/27 01:44:18;;;;;;;43.67;25.42;;;;;;;5.91;69.11;99324.50;5082475;28;20032;-73
2021/10/27 01:46:44;;;;;;;44.08;27.42;;;;;;;5.87;69.48;99335.06;5089156;28;20051;-73
2021/10/27 01:49:12;;;;;;;45.63;28.10;;;;;;;5.82;69.21;99324.06;5088001;28;20357;-73
2021/10/27 01:51:39;;;;;;;47.95;27.58;;;;;;;5.77;69.32;99332.94;5086627;28;20028;-73
2021/10/27 01:54:06;;;;;;;43.55;24.33;;;;;;;5.74;69.61;99330.69;5087338;28;20024;-73
2021/10/27 01:56:32;;;;;;;44.20;25.23;;;;;;;5.73;69.61;99336.41;5078631;28;20024;-73
2021/10/27 01:58:57;;;;;;;38.53;23.35;;;;;;;5.72;69.78;99341.00;5078611;28;20468;-72
2021/10/27 02:01:23;;;;;;;46.10;25.42;;;;;;;5.70;69.78;99339.59;5081437;28;20028;-73
2021/10/27 02:03:49;;;;;;;41.78;24.90;;;;;;;5.68;69.89;99341.75;5084781;28;20217;-72
2021/10/27 02:06:15;;;;;;;44.05;26.55;;;;;;;5.64;69.72;99331.34;5085397;28;20490;-72
2021/10/27 02:08:41;;;;;;;45.42;26.33;;;;;;;5.62;69.93;99329.94;5087723;28;20028;-73
2021/10/27 02:11:06;;;;;;;43.63;26.38;;;;;;;5.60;70.44;99332.88;5082096;28;20048;-72
2021/10/27 02:13:32;;;;;;;47.65;26.83;;;;;;;5.63;70.24;99348.75;5091286;28;20034;-72
2021/10/27 02:15:57;;;;;;;47.05;27.38;;;;;;;5.67;70.50;99346.38;5107192;28;20019;-73
2021/10/27 02:18:23;;;;;;;40.95;23.17;;;;;;;5.72;71.14;99351.91;5110704;28;20686;-72
2021/10/27 02:20:48;;;;;;;40.55;23.63;;;;;;;5.76;71.00;99346.81;5110406;28;20027;-72
2021/10/27 02:23:15;;;;;;;43.55;27.27;;;;;;;5.80;70.15;99343.34;5103113;28;20036;-73
2021/10/27 02:25:41;;;;;;;43.50;26.08;;;;;;;5.85;70.48;99345.34;5099732;28;20042;-72
2021/10/27 02:28:06;;;;;;;46.60;28.50;;;;;;;5.92;70.54;99347.94;5098749;28;20481;-72
2021/10/27 02:30:32;;;;;;;47.80;27.90;;;;;;;5.98;70.61;99352.41;5090506;28;20461;-73
2021/10/27 02:32:57;;;;;;;36.47;23.38;;;;;;;6.04;70.18;99353.34;5091893;28;20024;-73
2021/10/27 02:35:23;;;;;;;44.33;28.08;;;;;;;6.08;70.31;99346.34;5093577;28;20031;-73
2021/10/27 02:37:48;;;;;;;47.60;27.25;;;;;;;6.11;70.10;99346.66;5093114;28;20036;-73
2021/10/27 02:40:14;;;;;;;40.90;24.17;;;;;;;6.15;70.27;99349.75;5107635;28;20032;-73
2021/10/27 02:42:41;;;;;;;45.15;26.83;;;;;;;6.16;69.76;99348.66;5099820;28;20111;-73
2021/10/27 02:45:09;;;;;;;40.72;24.23;;;;;;;6.19;70.33;99348.19;5093848;28;20056;-72
2021/10/27 02:47:35;;;;;;;43.85;26.42;;;;;;;6.20;69.95;99346.28;5093479;28;20032;-72
2021/10/27 02:50:00;;;;;;;39.38;23.42;;;;;;;6.26;70.24;99356.19;5092441;28;20077;-73
2021/10/27 02:52:26;;;;;;;43.38;27.05;;;;;;;6.31;70.08;99352.75;5103561;28;20114;-72
2021/10/27 02:54:51;;;;;;;44.25;25.67;;;;;;;6.38;69.80;99347.94;5105967;28;20503;-72
2021/10/27 02:57:16;;;;;;;40.78;23.45;;;;;;;6.42;69.94;99351.81;5113430;28;20444;-73
2021/10/27 02:59:42;;;;;;;40.05;23.15;;;;;;;6.43;69.72;99358.94;5111468;28;20368;-73
2021/10/27 03:02:07;;;;;;;50.50;27.60;;;;;;;6.48;70.13;99363.66;5101168;28;20107;-72
2021/10/27 03:04:32;;;;;;;37.88;22.15;;;;;;;6.52;69.42;99362.91;5103869;28;20055;-73
2021/10/27 03:06:58;;;;;;;41.45;25.50;;;;;;;6.54;69.45;99359.91;5093569;28;20085;-74
2021/10/27 03:09:24;;;;;;;41.70;24.73;;;;;;;6.55;69.79;99365.13;5101956;28;20027;-73
2021/10/27 03:11:49;;;;;;;45.17;25.80;;;;;;;6.53;68.71;99359.09;5076363;28;20027;-73
2021/10/27 03:14:15;;;;;;;41.78;24.73;;;;;;;6.52;69.15;99367.53;5089558;28;20116;-74
2021/10/27 03:16:40;;;;;;;46.80;25.77;;;;;;;6.51;68.86;99365.88;5092265;28;20024;-73
2021/10/27 03:19:05;;;;;;;45.50;26.42;;;;;;;6.45;69.30;99366.88;5090964;28;20112;-73
2021/10/27 03:21:31;;;;;;;47.05;28.10;;;;;;;6.42;68.76;99365.44;5091741;28;20051;-73
2021/10/27 03:23:57;;;;;;;42.00;25.00;;;;;;;6.38;69.44;99359.69;5071213;28;20031;-72
2021/10/27 03:26:23;;;;;;;42.50;26.02;;;;;;;6.31;68.77;99364.47;5083674;28;20047;-73
2021/10/27 03:28:48;;;;;;;42.72;25.38;;;;;;;6.24;69.01;99370.06;5080927;28;20513;-73
2021/10/27 03:31:14;;;;;;;47.22;27.23;;;;;;;6.17;69.22;99361.22;5084398;28;20108;-73
2021/10/27 03:33:39;;;;;;;42.80;26.75;;;;;;;6.14;68.77;99369.03;5088127;28;20103;-74
2021/10/27 03:36:05;;;;;;;42.50;24.88;;;;;;;6.10;68.88;99371.44;5088509;28;20016;-72
2021/10/27 03:38:30;;;;;;;38.17;23.98;;;;;;;6.08;69.06;99371.69;5087619;28;20036;-73
2021/10/27 03:40:55;;;;;;;40.90;23.25;;;;;;;6.05;68.99;99376.78;5088292;28;20022;-74
2021/10/27 03:43:21;;;;;;;43.42;25.75;;;;;;;5.99;69.14;99375.84;5085580;28;20427;-73
2021/10/27 03:45:46;;;;;;;37.10;22.58;;;;;;;5.93;69.30;99374.91;5083180;28;20035;-73
2021/10/27 03:48:12;;;;;;;35.67;20.92;;;;;;;5.90;69.23;99372.69;5087037;28;20062;-73
2021/10/27 03:50:38;;;;;;;35.67;21.08;;;;;;;5.86;70.16;99376.97;5092847;28;20031;-73
2021/10/27 03:53:03;;;;;;;41.67;23.27;;;;;;;5.79;69.77;99382.53;5107132;28;20089;-73
2021/10/27 03:55:29;;;;;;;40.17;22.75;;;;;;;5.73;69.40;99382.69;5105460;28;20023;-74
2021/10/27 03:57:58;;;;;;;41.22;23.95;;;;;;;5.70;69.22;99391.31;5073495;28;20408;-73
2021/10/27 04:00:24;;;;;;;36.73;22.43;;;;;;;5.64;70.03;99383.06;5093188;28;20038;-73
2021/10/27 04:02:49;;;;;;;37.55;23.45;;;;;;;5.61;70.14;99388.16;5090738;28;20274;-73
2021/10/27 04:05:15;;;;;;;36.30;22.05;;;;;;;5.58;69.54;99378.56;5090311;28;20092;-73
2021/10/27 04:07:41;;;;;;;39.08;23.50;;;;;;;5.56;69.84;99379.88;5081652;28;20028;-73
2021/10/27 04:10:09;;;;;;;42.22;25.42;;;;;;;5.54;70.27;99387.47;5101668;28;20023;-73
2021/10/27 04:12:36;;;;;;;43.38;25.45;;;;;;;5.51;70.42;99386.88;5099038;28;20515;-73
2021/10/27 04:15:03;;;;;;;42.15;23.40;;;;;;;5.52;69.91;99393.13;5112171;28;20076;-73
2021/10/27 04:17:29;;;;;;;46.58;25.60;;;;;;;5.51;70.38;99383.31;5091099;28;20023;-72
2021/10/27 04:19:54;;;;;;;42.88;24.55;;;;;;;5.50;70.44;99392.56;5106985;28;20692;-73
2021/10/27 04:22:20;;;;;;;44.63;26.05;;;;;;;5.50;69.99;99398.81;5085756;28;20024;-74
2021/10/27 04:24:45;;;;;;;45.15;24.98;;;;;;;5.49;69.65;99401.78;5092473;28;20028;-73
2021/10/27 04:27:11;;;;;;;43.05;25.00;;;;;;;5.48;69.77;99411.03;5097167;28;20040;-72
2021/10/27 04:29:36;;;;;;;45.38;26.27;;;;;;;5.48;70.21;99413.75;5106796;28;20023;-73
2021/10/27 04:32:02;;;;;;;48.20;27.33;;;;;;;5.49;70.34;99416.22;5079777;28;20092;-73
2021/10/27 04:34:27;;;;;;;42.85;23.88;;;;;;;5.51;70.08;99418.69;5091250;28;20024;-74
2021/10/27 04:36:52;;;;;;;42.00;25.52;;;;;;;5.49;70.13;99415.41;5070390;28;20115;-74
2021/10/27 04:39:18;;;;;;;43.75;25.70;;;;;;;5.49;70.27;99418.13;5091057;28;20506;-73
2021/10/27 04:41:43;;;;;;;42.55;25.20;;;;;;;5.47;70.34;99412.09;5088834;28;20046;-73
2021/10/27 04:44:09;;;;;;;37.75;21.98;;;;;;;5.45;70.30;99409.59;5089671;28;20481;-73
2021/10/27 04:46:35;;;;;;;44.55;25.95;;;;;;;5.45;70.45;99411.50;5098843;28;20403;-74
2021/10/27 04:49:00;;;;;;;39.42;23.55;;;;;;;5.45;70.85;99417.75;5088585;28;20040;-73
2021/10/27 04:51:26;;;;;;;43.70;25.00;;;;;;;5.44;70.16;99407.94;5087304;28;20028;-73
2021/10/27 04:53:51;;;;;;;39.78;22.10;;;;;;;5.45;70.49;99415.03;5085424;28;20025;-73
2021/10/27 04:56:16;;;;;;;41.83;25.15;;;;;;;5.44;70.52;99412.56;5100387;28;20032;-73
2021/10/27 04:58:42;;;;;;;46.22;25.23;;;;;;;5.42;70.51;99409.25;5054892;28;20032;-74
2021/10/27 05:01:07;;;;;;;39.70;23.70;;;;;;;5.40;71.18;99411.38;5095335;28;20539;-74
2021/10/27 05:03:32;;;;;;;36.67;24.00;;;;;;;5.35;70.69;99412.94;5072176;28;20024;-74
2021/10/27 05:06:01;;;;;;;44.00;24.90;;;;;;;5.33;70.37;99423.22;5067115;28;20045;-74
2021/10/27 05:08:26;;;;;;;44.83;26.13;;;;;;;5.32;70.83;99421.56;5090724;28;20024;-72
2021/10/27 05:10:53;;;;;;;40.88;24.77;;;;;;;5.30;70.86;99415.53;5089987;28;20048;-73
2021/10/27 05:13:19;;;;;;;43.33;25.20;;;;;;;5.29;70.45;99421.22;5088714;28;20476;-74
2021/10/27 05:15:46;;;;;;;42.92;26.23;;;;;;;5.26;70.82;99422.50;5070626;28;20015;-74
2021/10/27 05:18:12;;;;;;;47.75;26.85;;;;;;;5.22;70.31;99415.88;5090266;28;20365;-74
2021/10/27 05:20:37;;;;;;;50.53;27.52;;;;;;;5.20;70.96;99418.84;5090232;28;20096;-73
2021/10/27 05:23:03;;;;;;;47.78;26.70;;;;;;;5.19;70.63;99421.78;5088803;28;20078;-73
2021/10/27 05:25:28;;;;;;;38.17;23.23;;;;;;;5.18;71.84;99428.28;5098549;28;20035;-73
2021/10/27 05:27:55;;;;;;;51.95;30.02;;;;;;;5.17;71.14;99435.66;5090027;28;20070;-73
2021/10/27 05:30:21;;;;;;;47.88;26.90;;;;;;;5.18;71.17;99431.00;5097076;28;20489;-73
2021/10/27 05:32:46;;;;;;;46.60;25.80;;;;;;;5.18;70.71;99433.75;5106650;28;20028;-73
2021/10/27 05:35:12;;;;;;;47.80;28.08;;;;;;;5.19;70.67;99443.56;5089619;28;20039;-73
2021/10/27 05:37:38;;;;;;;43.35;25.95;;;;;;;5.21;70.56;99441.44;5089927;28;20503;-73
2021/10/27 05:40:04;;;;;;;46.20;27.60;;;;;;;5.26;70.57;99436.09;5090228;28;20107;-74
2021/10/27 05:42:30;;;;;;;43.45;27.08;;;;;;;5.29;71.05;99438.34;5096382;28;20361;-74
2021/10/27 05:44:58;;;;;;;42.03;24.13;;;;;;;5.28;70.95;99439.41;5076608;28;20032;-73
2021/10/27 05:47:23;;;;;;;44.50;28.52;;;;;;;5.27;70.83;99445.91;5087833;28;20464;-73
2021/10/27 05:49:52;;;;;;;38.15;24.10;;;;;;;5.24;70.95;99451.84;5071447;28;20035;-73
2021/10/27 05:55:04;;;;;;;44.10;26.02;;;;;;;5.19;71.06;99457.16;5084712;28;20123;-73
2021/10/27 05:57:39;;;;;;;43.97;24.92;;;;;;;5.20;71.42;99453.38;5090363;28;20024;-72
2021/10/27 06:00:06;;;;;;;46.20;28.50;;;;;;;5.19;71.17;99460.72;5086938;28;20046;-73
2021/10/27 06:02:31;;;;;;;44.55;26.25;;;;;;;5.19;70.82;99463.44;5065496;28;20388;-73
2021/10/27 06:04:56;;;;;;;47.72;26.35;;;;;;;5.24;71.22;99470.06;5086241;28;20027;-73
2021/10/27 06:07:22;;;;;;;54.58;30.88;;;;;;;5.24;71.43;99468.16;5089512;28;20028;-73
2021/10/27 06:09:48;;;;;;;55.78;31.17;;;;;;;5.27;71.26;99470.41;5094539;28;20031;-73
2021/10/27 06:12:16;;;;;;;51.75;29.10;;;;;;;5.29;71.53;99478.34;5094087;28;20488;-73
2021/10/27 06:14:42;;;;;;;55.72;29.50;;;;;;;5.31;71.31;99474.31;5109710;28;20092;-73
2021/10/27 06:17:07;;;;;;;56.10;31.58;;;;;;;5.33;70.98;99476.78;5114367;28;20464;-73
2021/10/27 06:19:32;;;;;;;47.97;27.27;;;;;;;5.37;71.22;99472.53;5107383;28;20384;-73
2021/10/27 06:21:58;;;;;;;46.75;27.70;;;;;;;5.40;71.51;99482.13;5089567;28;20033;-73
2021/10/27 06:24:23;;;;;;;44.60;27.95;;;;;;;5.42;71.26;99485.44;5090859;28;20470;-74
2021/10/27 06:26:51;;;;;;;51.65;29.88;;;;;;;5.44;71.25;99483.31;5111761;28;20015;-73
2021/10/27 06:29:25;;;;;;;54.45;31.55;;;;;;;5.44;71.16;99484.13;5101937;28;20042;-74
2021/10/27 06:31:59;;;;;;;51.33;29.45;;;;;;;5.47;71.46;99485.56;5101203;28;20103;-74
2021/10/27 06:37:06;;;;;;;53.10;31.00;;;;;;;5.55;71.65;99485.16;5105835;28;20050;-74
2021/10/27 06:47:43;;;;;;;54.05;31.77;;;;;;;5.74;71.33;99474.97;5091162;28;20085;-73
2021/10/27 06:50:09;;;;;;;45.05;26.67;;;;;;;5.81;71.75;99477.59;5092005;28;20115;-73
2021/10/27 06:52:34;;;;;;;52.40;30.92;;;;;;;5.87;71.18;99478.50;5090217;28;20059;-73
2021/10/27 06:54:59;;;;;;;50.05;28.77;;;;;;;5.95;71.40;99484.41;5093353;28;20366;-73
2021/10/27 06:57:27;;;;;;;50.53;29.88;;;;;;;6.02;71.36;99478.03;5073815;28;20107;-71
2021/10/27 06:59:58;;;;;;;46.22;27.33;;;;;;;6.10;71.63;99469.47;5094407;28;20506;-72
2021/10/27 07:16:05;;;;;;;48.33;27.33;;;;;;;6.63;70.87;99491.19;5113123;28;20090;-71
2021/10/27 07:18:31;;;;;;;41.97;25.15;;;;;;;6.72;70.94;99475.25;5094413;28;20026;-72
2021/10/27 07:20:56;;;;;;;45.50;25.00;;;;;;;6.80;70.80;99483.03;5104218;28;20079;-71
2021/10/27 07:23:21;;;;;;;51.42;28.40;;;;;;;6.88;71.01;99477.19;5103831;28;20024;-71
2021/10/27 07:25:56;;;;;;;48.83;29.13;;;;;;;6.98;70.67;99474.59;5101963;28;20047;-71
2021/10/27 07:28:21;;;;;;;41.35;24.00;;;;;;;7.08;70.65;99487.63;5078320;28;20042;-71
2021/10/27 07:30:47;;;;;;;50.35;27.67;;;;;;;7.20;70.44;99489.41;5088352;28;20024;-71
2021/10/27 07:33:13;;;;;;;48.15;27.85;;;;;;;7.28;70.34;99491.72;5088448;28;20044;-72
2021/10/27 07:35:52;;;;;;;41.03;24.13;;;;;;;7.34;70.04;99495.34;5091426;28;20067;-71
2021/10/27 07:41:03;;;;;;;38.70;23.25;;;;;;;7.52;69.72;99495.09;5093262;28;20042;-71
2021/10/27 07:43:30;;;;;;;48.30;26.63;;;;;;;7.59;69.69;99497.63;5086510;28;20393;-71
2021/10/27 07:45:57;;;;;;;42.30;24.80;;;;;;;7.66;69.78;99495.56;5085274;28;20032;-72
2021/10/27 07:48:23;;;;;;;46.88;28.52;;;;;;;7.74;69.56;99502.50;5089858;28;20089;-70
2021/10/27 07:50:49;;;;;;;47.08;27.83;;;;;;;7.80;69.38;99495.22;5086604;28;20045;-70
2021/10/27 07:53:15;;;;;;;48.83;30.08;;;;;;;7.86;69.35;99491.47;5095733;28;20032;-70
2021/10/27 07:55:50;;;;;;;48.15;24.17;;;;;;;7.94;69.07;99496.50;5091591;28;20027;-70
2021/10/27 07:58:21;;;;;;;39.28;22.30;;;;;;;8.00;69.09;99495.47;5089081;28;20035;-70
2021/10/27 08:00:48;;;;;;;37.40;21.92;;;;;;;8.05;68.70;99492.00;5107387;28;20030;-71
2021/10/27 08:03:14;;;;;;;43.30;25.60;;;;;;;8.08;68.45;99486.03;5110930;28;20028;-70
2021/10/27 08:05:41;;;;;;;43.28;25.90;;;;;;;8.12;68.16;99491.78;5111439;28;20027;-70
2021/10/27 08:08:13;;;;;;;43.63;25.30;;;;;;;8.16;68.06;99490.19;5089921;28;20023;-69
2021/10/27 08:10:41;;;;;;;41.60;24.98;;;;;;;8.17;68.05;99495.41;5099045;28;20034;-70
2021/10/27 08:13:07;;;;;;;46.58;26.50;;;;;;;8.22;68.26;99499.28;5086684;28;20656;-70
2021/10/27 08:15:33;;;;;;;43.17;25.05;;;;;;;8.27;67.90;99499.34;5086962;28;20041;-70
2021/10/27 08:18:00;;;;;;;48.85;28.38;;;;;;;8.35;67.78;99507.91;5087172;28;20024;-70
2021/10/27 08:20:27;;;;;;;43.70;26.42;;;;;;;8.47;68.39;99496.84;5095058;28;20483;-69
2021/10/27 08:22:56;;;;;;;43.38;22.30;;;;;;;8.58;67.68;99502.44;5106258;28;20058;-69
2021/10/27 08:25:29;;;;;;;49.45;26.48;;;;;;;8.64;67.77;99510.47;5090090;28;20471;-69
2021/10/27 08:28:05;;;;;;;47.38;26.15;;;;;;;8.70;67.10;99505.84;5108606;28;20183;-69
2021/10/27 08:30:37;;;;;;;48.38;27.00;;;;;;;8.77;67.47;99502.91;5097994;28;20536;-70
2021/10/27 08:33:06;;;;;;;40.83;23.15;;;;;;;8.83;67.59;99504.59;5085897;28;20078;-69
2021/10/27 08:35:35;;;;;;;38.47;23.95;;;;;;;8.89;66.36;99500.84;5096894;28;20016;-70
2021/10/27 08:38:03;;;;;;;43.05;25.58;;;;;;;8.94;66.59;99494.59;5110319;28;20031;-69
2021/10/27 08:40:29;;;;;;;38.67;22.73;;;;;;;9.05;67.18;99492.78;5110704;28;20028;-71
2021/10/27 08:42:56;;;;;;;49.50;27.60;;;;;;;9.16;66.45;99496.41;5097256;28;20028;-69
2021/10/27 08:45:22;;;;;;;37.25;22.70;;;;;;;9.26;66.71;99501.16;5089041;28;20031;-70
2021/10/27 08:47:51;;;;;;;43.92;24.08;;;;;;;9.33;66.24;99496.28;5093650;28;20113;-69
2021/10/27 08:50:19;;;;;;;33.70;20.10;;;;;;;9.37;65.51;99492.75;5110799;28;20498;-69
2021/10/27 08:52:44;;;;;;;42.28;24.83;;;;;;;9.40;65.79;99502.34;5107781;28;20118;-69
2021/10/27 08:55:12;;;;;;;38.13;21.60;;;;;;;9.45;65.06;99501.56;5101062;28;20030;-69
2021/10/27 08:57:40;;;;;;;35.95;21.40;;;;;;;9.51;64.94;99495.03;5101694;28;20380;-69
2021/10/27 09:00:16;;;;;;;36.22;21.40;;;;;;;9.58;65.21;99494.81;5097777;28;20119;-69
2021/10/27 09:14:31;;;;;;;42.17;23.83;;;;;;;9.98;65.44;99494.22;5086527;28;20116;-69
2021/10/27 10:06:44;;;;;;;32.90;19.40;;;;;;;11.38;60.83;99478.03;5104423;28;20042;-79
2021/10/27 10:09:11;;;;;;;30.38;18.95;;;;;;;11.48;60.84;99482.69;5093293;28;20485;-80
2021/10/27 10:11:38;;;;;;;30.15;17.63;;;;;;;11.59;61.45;99483.47;5103605;28;20032;-79
2021/10/27 10:14:06;;;;;;;30.35;18.13;;;;;;;11.66;60.88;99484.03;5093840;28;20020;-77
2021/10/27 10:16:41;;;;;;;28.02;17.48;;;;;;;11.74;61.26;99485.38;5075923;28;20274;-76
2021/10/27 10:19:13;;;;;;;26.73;16.63;;;;;;;11.81;60.61;99487.84;5089581;28;20027;-77
2021/10/27 10:21:43;;;;;;;32.05;21.00;;;;;;;11.88;59.97;99482.84;5092651;28;20036;-80
2021/10/27 10:24:15;;;;;;;30.52;18.40;;;;;;;11.94;60.06;99483.69;5101274;28;20418;-74
2021/10/27 10:26:42;;;;;;;28.70;17.50;;;;;;;12.06;59.38;99481.44;5097524;28;20429;-73
2021/10/27 10:29:07;;;;;;;33.40;18.33;;;;;;;12.20;59.98;99487.19;5111050;28;20047;-78
2021/10/27 10:31:36;;;;;;;31.80;18.52;;;;;;;12.31;60.24;99479.72;5108462;28;20044;-76
2021/10/27 10:34:04;;;;;;;26.52;16.95;;;;;;;12.42;59.74;99480.47;5099524;28;20038;-79
2021/10/27 10:36:33;;;;;;;30.20;16.98;;;;;;;12.54;59.32;99480.13;5093204;28;20038;-79
2021/10/27 10:41:42;;;;;;;33.80;21.02;;;;;;;12.77;59.52;99476.69;5092321;28;20048;-80
2021/10/27 10:56:58;;;;;;;30.65;18.23;;;;;;;13.24;58.07;99460.59;5089425;28;20558;-81
2021/10/27 11:40:08;;;;;;;26.90;14.98;;;;;;;13.81;54.22;99445.44;5087380;28;20036;-81
2021/10/27 11:48:05;;;;;;;20.98;12.35;;;;;;;13.83;54.14;99429.44;5102896;28;20143;-77
2021/10/27 11:50:38;;;;;;;20.88;13.82;;;;;;;13.92;54.24;99435.13;5087816;28;20031;-80
2021/10/27 11:53:06;;;;;;;20.20;12.60;;;;;;;14.06;54.45;99432.47;5092431;28;20024;-78
2021/10/27 11:55:34;;;;;;;17.15;11.98;;;;;;;14.18;53.32;99435.63;5111065;28;20119;-80
2021/10/27 11:58:01;;;;;;;19.15;12.48;;;;;;;14.27;53.17;99425.56;5088238;28;20455;-81
2021/10/27 12:00:48;;;;;;;25.33;15.40;;;;;;;14.32;53.09;99423.84;5082348;28;20030;-77
2021/10/27 12:03:20;;;;;;;23.00;13.23;;;;;;;14.43;53.10;99417.06;5089539;28;20039;-81
2021/10/27 12:13:59;;;;;;;25.45;14.20;;;;;;;14.82;52.84;99415.97;5083648;28;20369;-78
2021/10/27 12:19:18;;;;;;;20.73;13.10;;;;;;;14.82;51.99;99418.72;5095839;28;20047;-79
2021/10/27 12:22:08;;;;;;;22.80;14.85;;;;;;;14.71;51.33;99414.47;5089944;28;20030;-80
2021/10/27 12:24:39;;;;;;;25.08;15.18;;;;;;;14.67;52.11;99418.91;5081051;28;20059;-84
2021/10/27 12:27:41;;;;;;;22.42;14.30;;;;;;;14.69;52.14;99417.50;5099727;28;20073;-81
2021/10/27 12:30:15;;;;;;;30.02;17.67;;;;;;;14.69;51.98;99409.22;5089183;28;20107;-79
2021/10/27 12:32:52;;;;;;;27.15;16.50;;;;;;;14.81;52.65;99399.66;5073722;28;20032;-82
2021/10/27 12:35:18;;;;;;;24.02;16.05;;;;;;;14.92;52.78;99406.69;5087385;28;20423;-79
2021/10/27 12:40:17;;;;;;;25.17;14.80;;;;;;;15.04;52.95;99406.19;5087518;28;20393;-79
2021/10/27 12:42:43;;;;;;;30.42;20.25;;;;;;;15.01;52.34;99407.63;5084519;28;20029;-78
2021/10/27 12:45:08;;;;;;;29.63;18.80;;;;;;;15.00;52.73;99399.63;5076871;28;20028;-80
2021/10/27 12:47:36;;;;;;;31.52;21.70;;;;;;;14.88;52.26;99400.91;5089474;28;20019;-81
2021/10/27 12:50:15;;;;;;;32.83;21.73;;;;;;;14.88;52.35;99405.63;5084153;28;20150;-79
2021/10/27 12:52:55;;;;;;;29.92;17.23;;;;;;;15.00;52.84;99405.16;5089929;28;20032;-80
2021/10/27 12:55:35;;;;;;;36.00;21.60;;;;;;;15.05;52.80;99407.84;5096007;28;20016;-78
2021/10/27 12:58:12;;;;;;;32.22;19.25;;;;;;;15.43;52.56;99402.16;5083879;28;20035;-78
2021/10/27 13:06:13;;;;;;;30.98;20.20;;;;;;;16.70;50.78;99402.81;5084525;28;20035;-75
2021/10/27 13:19:47;;;;;;;27.42;17.42;;;;;;;18.69;49.47;99395.94;5087060;28;20044;-77
2021/10/27 13:30:16;;;;;;;27.92;17.80;;;;;;;19.29;45.72;99394.22;5085284;28;20388;-78
2021/10/27 13:32:54;;;;;;;24.08;17.05;;;;;;;19.31;45.08;99386.34;5085694;28;20051;-77
2021/10/27 13:35:20;;;;;;;21.45;15.45;;;;;;;19.22;43.98;99384.72;5076983;28;20024;-78
2021/10/27 13:37:46;;;;;;;21.83;14.98;;;;;;;19.19;44.51;99386.22;5083521;28;20035;-77
2021/10/27 13:40:11;;;;;;;20.13;14.43;;;;;;;18.91;43.41;99392.16;5071720;28;20024;-77
2021/10/27 14:06:42;;;;;;;24.58;15.95;;;;;;;16.21;48.17;99393.16;5079410;28;20097;-76
2021/10/27 14:09:24;;;;;;;24.15;16.08;;;;;;;16.15;48.99;99388.84;5089197;28;20023;-78
2021/10/27 14:14:37;;;;;;;24.42;16.25;;;;;;;16.03;49.15;99397.69;5095536;28;20047;-78
2021/10/27 14:17:55;;;;;;;33.00;22.45;;;;;;;15.91;48.94;99397.38;5076564;28;20033;-78
2021/10/27 15:22:22;;;;;;;29.80;16.52;;;;;;;12.26;55.65;99378.78;5091769;28;20451;-80
2021/10/27 15:50:52;;;;;;;46.53;27.98;;;;;;;11.09;59.34;99385.25;5084836;28;20040;-79
2021/10/27 15:53:17;;;;;;;;;;;;;;;11.02;59.59;99385.53;5088414;28;20035;-79
2021/10/27 15:55:43;;;;;;;46.00;27.48;;;;;;;10.95;59.10;99392.41;5086105;28;19928;-78
2021/10/27 15:58:08;;;;;;;49.25;26.92;;;;;;;10.90;59.00;99381.44;5088069;28;20062;-78
2021/10/27 16:00:38;;;;;;;37.03;21.70;;;;;;;10.86;59.65;99392.97;5088563;28;20499;-78
2021/10/27 16:03:05;;;;;;;;;;;;;;;10.79;60.32;99388.84;5088040;28;20074;-79
2021/10/27 16:05:30;;;;;;;40.67;22.08;;;;;;;10.71;60.10;99399.28;5087939;28;20280;-78
2021/10/27 16:07:56;;;;;;;39.20;22.30;;;;;;;10.67;60.14;99389.94;5069772;28;20049;-78
2021/10/27 16:10:23;;;;;;;44.05;26.10;;;;;;;10.63;60.89;99405.31;5083035;28;20131;-78
2021/10/27 16:12:48;;;;;;;42.75;24.90;;;;;;;10.56;61.34;99399.25;5085297;28;20031;-79
2021/10/27 16:15:57;;;;;;;39.20;22.95;;;;;;;10.50;61.78;99403.94;5083208;28;20404;-78
2021/10/27 16:18:11;;;;;;;49.53;29.65;;;;;;;10.43;60.99;99404.16;5075001;28;20411;-78
2021/10/27 16:20:39;;;;;;;43.15;24.75;;;;;;;10.41;61.76;99409.09;5087438;28;20027;-79
2021/10/27 16:23:07;;;;;;;43.95;25.25;;;;;;;10.38;61.80;99404.16;5089414;28;20435;-78
2021/10/27 16:25:32;;;;;;;50.60;31.92;;;;;;;10.34;61.86;99408.53;5086263;28;20020;-77
2021/10/27 16:27:58;;;;;;;54.80;33.83;;;;;;;10.32;62.64;99407.16;5089746;28;20059;-78
2021/10/27 16:30:25;;;;;;;51.95;31.67;;;;;;;10.28;62.45;99407.69;5046450;28;20044;-79
2021/10/27 16:32:51;;;;;;;51.30;32.55;;;;;;;10.24;62.35;99408.50;5089614;28;20834;-79